Time;durP1;ratioP1;P1;durP2;ratioP2;P2;SDS_P1;SDS_P2;PMS_P1;PMS_P2;Temp;Humidity;BMP_temperature;BMP_pressure;BME280_temperature;BME280_humidity;BME280_pressure;Samples;Min_cycle;Max_cycle;Signal;HPM_P1;HPM_P2
2023/10/13 00:02:07;;;;;;;3.67;0.50;;;;;;;-143.29;100.00;62188.47;5051370;28;20035;-88
2023/10/13 00:04:35;;;;;;;9.75;0.75;;;;;;;-143.29;100.00;62188.47;5052180;28;20048;-89
2023/10/13 00:07:02;;;;;;;8.68;0.60;;;;;;;-143.29;100.00;62188.47;5051901;28;20479;-89
2023/10/13 00:09:32;;;;;;;3.22;0.28;;;;;;;-143.29;100.00;62188.47;5034171;28;20032;-88
2023/10/13 00:12:00;;;;;;;5.22;0.32;;;;;;;-143.29;100.00;62188.47;5033164;28;20024;-89
2023/10/13 00:14:33;;;;;;;2.50;0.35;;;;;;;-143.29;100.00;62188.47;5050797;28;20156;-89
2023/10/13 00:17:03;;;;;;;5.53;0.55;;;;;;;-143.29;100.00;62188.47;5033371;28;20021;-89
2023/10/13 00:19:46;;;;;;;2.17;0.50;;;;;;;-143.29;100.00;62188.47;5052093;28;20433;-89
2023/10/13 00:22:15;;;;;;;3.35;0.50;;;;;;;-143.29;100.00;62188.47;5051731;28;20054;-90
2023/10/13 00:24:42;;;;;;;6.82;0.95;;;;;;;-143.29;100.00;62188.47;5052391;28;20021;-89
2023/10/13 00:27:33;;;;;;;3.30;1.13;;;;;;;-143.29;100.00;62188.47;5051944;28;20098;-90
2023/10/13 00:32:43;;;;;;;17.77;1.90;;;;;;;-143.29;100.00;62188.47;5051216;28;20102;-89
2023/10/13 00:35:35;;;;;;;4.65;2.22;;;;;;;-143.29;100.00;62188.47;5051579;28;20082;-90
2023/10/13 00:38:04;;;;;;;;;;;;;;;-143.29;100.00;62188.47;5034314;28;20028;-89
2023/10/13 00:43:31;;;;;;;12.68;3.15;;;;;;;-143.29;100.00;62188.47;5050905;28;20104;-89
2023/10/13 00:45:57;;;;;;;12.02;3.75;;;;;;;-143.29;100.00;62188.47;5067156;28;20059;-89
2023/10/13 00:48:34;;;;;;;10.23;4.95;;;;;;;-143.29;100.00;62188.47;5071622;28;20344;-89
2023/10/13 00:51:07;;;;;;;16.50;5.80;;;;;;;-143.29;100.00;62188.47;5071571;28;20071;-90
2023/10/13 00:53:37;;;;;;;16.73;5.72;;;;;;;-143.29;100.00;62188.47;5071416;28;20032;-89
2023/10/13 00:56:07;;;;;;;19.30;6.25;;;;;;;-143.29;100.00;62188.47;5071332;28;20024;-90
2023/10/13 00:58:38;;;;;;;13.10;6.00;;;;;;;-143.29;100.00;62188.47;5068027;28;20024;-89
2023/10/13 01:01:28;;;;;;;15.77;6.70;;;;;;;-143.29;100.00;62188.47;5050726;28;20021;-90
2023/10/13 01:04:01;;;;;;;22.60;6.47;;;;;;;-143.29;100.00;62188.47;5051683;28;20029;-89
2023/10/13 01:06:28;;;;;;;22.02;6.70;;;;;;;-143.29;100.00;62188.47;5051346;28;20025;-90
2023/10/13 01:09:19;;;;;;;19.65;8.20;;;;;;;-143.29;100.00;62188.47;5051389;28;20059;-90
2023/10/13 01:11:52;;;;;;;26.55;6.93;;;;;;;-143.29;100.00;62188.47;5033623;28;20114;-90
2023/10/13 01:14:20;;;;;;;25.15;7.88;;;;;;;-143.29;100.00;62188.47;5032759;28;20037;-90
2023/10/13 01:16:52;;;;;;;18.30;7.40;;;;;;;-143.29;100.00;62188.47;5032841;28;20059;-90
2023/10/13 01:19:20;;;;;;;21.02;8.90;;;;;;;-143.29;100.00;62188.47;5051453;28;20055;-90
2023/10/13 01:21:47;;;;;;;30.30;8.95;;;;;;;-143.29;100.00;62188.47;5051144;28;20031;-90
2023/10/13 01:24:13;;;;;;;21.45;7.90;;;;;;;-143.29;100.00;62188.47;5051250;28;20040;-90
2023/10/13 01:26:40;;;;;;;18.27;7.78;;;;;;;-143.29;100.00;62188.47;5051214;28;20029;-90
2023/10/13 01:29:14;;;;;;;20.48;7.32;;;;;;;-143.29;100.00;62188.47;5049138;28;20506;-90
2023/10/13 01:31:47;;;;;;;27.75;7.13;;;;;;;-143.29;100.00;62188.47;5049137;28;20123;-90
2023/10/13 01:34:14;;;;;;;17.17;7.78;;;;;;;-143.29;100.00;62188.47;5051105;28;20375;-90
2023/10/13 01:36:40;;;;;;;27.45;8.30;;;;;;;-143.29;100.00;62188.47;5051195;28;20025;-90
2023/10/13 01:39:07;;;;;;;20.33;8.02;;;;;;;-143.29;100.00;62188.47;5051085;28;20028;-90
2023/10/13 01:41:37;;;;;;;25.17;9.32;;;;;;;-143.29;100.00;62188.47;5050983;28;20021;-90
2023/10/13 01:44:02;;;;;;;24.05;7.93;;;;;;;-143.29;100.00;62188.47;5050866;28;20035;-90
2023/10/13 01:46:28;;;;;;;21.98;7.80;;;;;;;-143.29;100.00;62188.47;5067381;28;20028;-90
2023/10/13 01:48:54;;;;;;;16.85;7.57;;;;;;;-143.29;100.00;62188.47;5071046;28;20025;-90
2023/10/13 01:51:23;;;;;;;30.25;8.85;;;;;;;-143.29;100.00;62188.47;5071147;28;20050;-89
2023/10/13 01:53:56;;;;;;;15.98;7.30;;;;;;;-143.29;100.00;62188.47;5070965;28;20478;-90
2023/10/13 01:56:23;;;;;;;30.23;8.75;;;;;;;-143.29;100.00;62188.47;5074509;28;20493;-90
2023/10/13 01:58:48;;;;;;;27.73;9.20;;;;;;;-143.29;100.00;62188.47;5074875;28;20020;-90
2023/10/13 02:01:26;;;;;;;30.90;9.73;;;;;;;-143.29;100.00;62188.47;5053296;28;20025;-90
2023/10/13 02:04:02;;;;;;;30.20;10.60;;;;;;;-143.29;100.00;62188.47;5054315;28;20037;-89
2023/10/13 02:06:33;;;;;;;29.02;10.93;;;;;;;-143.29;100.00;62188.47;5054343;28;20021;-90
2023/10/13 02:09:12;;;;;;;30.00;9.70;;;;;;;-143.29;100.00;62188.47;5054222;28;20031;-89
2023/10/13 02:11:45;;;;;;;27.45;10.48;;;;;;;-143.29;100.00;62188.47;5053982;28;20399;-89
2023/10/13 02:14:11;;;;;;;22.65;9.35;;;;;;;-143.29;100.00;62188.47;5053118;28;20055;-89
2023/10/13 02:16:37;;;;;;;20.92;9.25;;;;;;;-143.29;100.00;62188.47;5051178;28;20044;-89
2023/10/13 02:19:05;;;;;;;36.05;11.20;;;;;;;-143.29;100.00;62188.47;5054235;28;20280;-89
2023/10/13 02:21:32;;;;;;;31.10;11.55;;;;;;;-143.29;100.00;62188.47;5053949;28;20021;-89
2023/10/13 02:24:03;;;;;;;34.65;10.75;;;;;;;-143.29;100.00;62188.47;5054015;28;20617;-89
2023/10/13 02:26:32;;;;;;;29.38;12.18;;;;;;;-143.29;100.00;62188.47;5036061;28;20372;-89
2023/10/13 02:29:08;;;;;;;32.60;12.13;;;;;;;-143.29;100.00;62188.47;5053991;28;20036;-89
2023/10/13 02:31:37;;;;;;;36.88;12.57;;;;;;;-143.29;100.00;62188.47;5052190;28;20033;-89
2023/10/13 02:34:09;;;;;;;37.58;12.43;;;;;;;-143.29;100.00;62188.47;5035950;28;20426;-89
2023/10/13 02:36:49;;;;;;;;;;;;;;;-143.29;100.00;62188.47;5054261;28;20032;-89
2023/10/13 02:39:25;;;;;;;52.47;13.88;;;;;;;-143.29;100.00;62188.47;5035847;28;19913;-89
2023/10/13 02:41:51;;;;;;;37.80;14.75;;;;;;;-143.29;100.00;62188.47;5053784;28;20021;-90
2023/10/13 02:44:49;;;;;;;38.30;13.60;;;;;;;-143.29;100.00;62188.47;5053583;28;20025;-88
2023/10/13 02:47:13;;;;;;;41.38;15.27;;;;;;;-143.29;100.00;62188.47;5050938;28;20067;-89
2023/10/13 02:49:42;;;;;;;45.28;16.13;;;;;;;-143.29;100.00;62188.47;5053397;28;20329;-88
2023/10/13 02:52:08;;;;;;;33.45;13.65;;;;;;;-143.29;100.00;62188.47;5053243;28;20021;-88
2023/10/13 02:54:39;;;;;;;39.42;14.73;;;;;;;-143.29;100.00;62188.47;5053397;28;20025;-89
2023/10/13 02:57:05;;;;;;;38.90;14.07;;;;;;;-143.29;100.00;62188.47;5053347;28;20020;-89
2023/10/13 02:59:46;;;;;;;42.72;13.75;;;;;;;-143.29;100.00;62188.47;5058872;28;20635;-89
2023/10/13 03:02:29;;;;;;;39.10;13.15;;;;;;;-143.29;100.00;62188.47;5066829;28;20062;-89
2023/10/13 03:04:59;;;;;;;37.05;13.55;;;;;;;-143.29;100.00;62188.47;5053305;28;20503;-89
2023/10/13 03:07:30;;;;;;;26.73;11.50;;;;;;;-143.29;100.00;62188.47;5052590;28;20349;-89
2023/10/13 03:10:00;;;;;;;39.75;12.77;;;;;;;-143.29;100.00;62188.47;5053401;28;20020;-89
2023/10/13 03:12:26;;;;;;;36.38;12.88;;;;;;;-143.29;100.00;62188.47;5052977;28;20032;-89
2023/10/13 03:14:56;;;;;;;42.05;12.90;;;;;;;-143.29;100.00;62188.47;5052718;28;20048;-89
2023/10/13 03:17:33;;;;;;;41.60;13.85;;;;;;;-143.29;100.00;62188.47;5036958;28;20112;-89
2023/10/13 03:19:59;;;;;;;35.20;12.88;;;;;;;-143.29;100.00;62188.47;5049583;28;20033;-89
2023/10/13 03:22:31;;;;;;;39.05;12.45;;;;;;;-143.29;100.00;62188.47;5052656;28;20024;-89
2023/10/13 03:25:06;;;;;;;47.45;12.80;;;;;;;-143.29;100.00;62188.47;5052928;28;20029;-89
2023/10/13 03:30:35;;;;;;;39.25;12.98;;;;;;;-143.29;100.00;62188.47;5042971;28;20044;-89
2023/10/13 03:33:07;;;;;;;37.45;12.63;;;;;;;-143.29;100.00;62188.47;5052767;28;20025;-88
2023/10/13 03:35:43;;;;;;;36.38;11.20;;;;;;;-143.29;100.00;62188.47;5051745;28;20502;-89
2023/10/13 03:38:18;;;;;;;40.00;11.98;;;;;;;-143.29;100.00;62188.47;5052697;28;20112;-89
2023/10/13 03:40:48;;;;;;;41.90;12.90;;;;;;;-143.29;100.00;62188.47;5052553;28;20447;-90
2023/10/13 03:43:21;;;;;;;35.88;11.52;;;;;;;-143.29;100.00;62188.47;5052145;28;20108;-89
2023/10/13 03:45:48;;;;;;;40.08;11.25;;;;;;;-143.29;100.00;62188.47;5051804;28;20036;-89
2023/10/13 03:51:14;;;;;;;51.67;13.38;;;;;;;-143.29;100.00;62188.47;5068366;28;20435;-88
2023/10/13 03:53:55;;;;;;;44.05;12.00;;;;;;;-143.29;100.00;62188.47;5054129;28;20085;-89
2023/10/13 03:56:28;;;;;;;54.08;13.48;;;;;;;-143.29;100.00;62188.47;5072219;28;20055;-89
2023/10/13 03:58:58;;;;;;;45.50;12.07;;;;;;;-143.29;100.00;62188.47;5072389;28;20025;-88
2023/10/13 04:01:43;;;;;;;48.67;12.05;;;;;;;-143.29;100.00;62188.47;5071217;28;20044;-89
2023/10/13 04:04:14;;;;;;;51.03;13.27;;;;;;;-143.29;100.00;62188.47;5046353;28;20021;-89
2023/10/13 04:10:43;;;;;;;53.08;12.13;;;;;;;-143.29;100.00;62188.47;5052201;28;20028;-89
2023/10/13 04:17:27;;;;;;;48.95;13.65;;;;;;;-143.29;100.00;62188.47;5051773;28;20033;-89
2023/10/13 04:23:18;;;;;;;57.67;12.98;;;;;;;-143.29;100.00;62188.47;5051893;28;20116;-89
2023/10/13 04:28:14;;;;;;;39.58;11.93;;;;;;;-143.29;100.00;62188.47;5051856;28;20021;-89
2023/10/13 04:36:14;;;;;;;54.13;12.95;;;;;;;-143.29;100.00;62188.47;5051963;28;20033;-89
2023/10/13 04:38:57;;;;;;;47.92;11.13;;;;;;;-143.29;100.00;62188.47;5051654;28;20036;-90
2023/10/13 04:41:36;;;;;;;49.55;10.38;;;;;;;-143.29;100.00;62188.47;5051510;28;20027;-89
2023/10/13 04:44:05;;;;;;;41.45;9.50;;;;;;;-143.29;100.00;62188.47;5033155;28;20067;-89
2023/10/13 04:46:54;;;;;;;37.63;9.75;;;;;;;-143.29;100.00;62188.47;5051561;28;20025;-90
2023/10/13 04:49:29;;;;;;;39.00;10.50;;;;;;;-143.29;100.00;62188.47;5070472;28;20025;-89
2023/10/13 04:52:00;;;;;;;40.90;10.68;;;;;;;-143.29;100.00;62188.47;5071713;28;20032;-89
2023/10/13 04:54:33;;;;;;;41.55;13.05;;;;;;;-143.29;100.00;62188.47;5071854;28;20020;-89
2023/10/13 04:57:23;;;;;;;34.13;10.05;;;;;;;-143.29;100.00;62188.47;5071439;28;20082;-89
2023/10/13 05:03:01;;;;;;;47.67;10.68;;;;;;;-143.29;100.00;62188.47;5024271;28;20053;-89
2023/10/13 05:49:29;;;;;;;24.70;7.60;;;;;;;-143.29;100.00;62188.47;5074806;28;20494;-90
2023/10/13 05:51:58;;;;;;;35.97;8.65;;;;;;;-143.29;100.00;62188.47;5074448;28;20036;-89
2023/10/13 06:28:40;;;;;;;23.23;6.85;;;;;;;-143.29;100.00;62188.47;5074795;28;20397;-89
2023/10/13 06:30:12;;;;;;;30.10;6.47;;;;;;;-143.29;100.00;62188.47;5051950;28;20577;-89
2023/10/13 06:32:39;;;;;;;25.38;5.75;;;;;;;-143.29;100.00;62188.47;5053683;28;20025;-89
2023/10/13 06:35:07;;;;;;;22.00;4.75;;;;;;;-143.29;100.00;62188.47;5052536;28;20433;-90
2023/10/13 06:37:33;;;;;;;21.08;5.13;;;;;;;-143.29;100.00;62188.47;5053832;28;20017;-89
2023/10/13 06:40:07;;;;;;;17.73;4.60;;;;;;;-143.29;100.00;62188.47;5053994;28;20025;-89
2023/10/13 06:42:42;;;;;;;20.35;4.43;;;;;;;-143.29;100.00;62188.47;5052882;28;20069;-89
2023/10/13 06:45:08;;;;;;;23.40;5.18;;;;;;;-143.29;100.00;62188.47;5053936;28;20028;-89
2023/10/13 06:47:43;;;;;;;23.85;5.15;;;;;;;-143.29;100.00;62188.47;5052935;28;20487;-89
2023/10/13 06:50:15;;;;;;;19.73;4.22;;;;;;;-143.29;100.00;62188.47;5033741;28;20033;-90
2023/10/13 06:52:44;;;;;;;18.95;4.20;;;;;;;-143.29;100.00;62188.47;5033699;28;20087;-89
2023/10/13 06:55:46;;;;;;;15.25;3.72;;;;;;;-143.29;100.00;62188.47;5033801;28;20028;-89
2023/10/13 06:58:02;;;;;;;15.40;3.63;;;;;;;-143.29;100.00;62188.47;5030548;28;20034;-89
2023/10/13 07:00:38;;;;;;;17.92;4.18;;;;;;;-143.29;100.00;62188.47;5033643;28;20099;-90
2023/10/13 07:03:08;;;;;;;21.58;4.38;;;;;;;-143.29;100.00;62188.47;5039591;28;20025;-90
2023/10/13 07:05:43;;;;;;;25.27;3.97;;;;;;;-143.29;100.00;62188.47;5035781;28;20021;-90
2023/10/13 07:08:14;;;;;;;22.65;4.13;;;;;;;-143.29;100.00;62188.47;5053423;28;20327;-90
2023/10/13 07:11:05;;;;;;;17.25;4.00;;;;;;;-143.29;100.00;62188.47;5035490;28;20059;-90
2023/10/13 07:13:30;;;;;;;14.48;4.22;;;;;;;-143.29;100.00;62188.47;5053181;28;20052;-90
2023/10/13 07:16:00;;;;;;;18.33;4.55;;;;;;;-143.29;100.00;62188.47;5053089;28;20102;-89
2023/10/13 07:18:25;;;;;;;20.98;4.50;;;;;;;-143.29;100.00;62188.47;5052115;28;20025;-89
2023/10/13 07:20:52;;;;;;;19.95;4.18;;;;;;;-143.29;100.00;62188.47;5053143;28;20394;-90
2023/10/13 07:23:17;;;;;;;17.23;3.72;;;;;;;-143.29;100.00;62188.47;5051573;28;20025;-90
2023/10/13 07:25:51;;;;;;;28.17;3.63;;;;;;;-143.29;100.00;62188.47;5052956;28;20541;-90
2023/10/13 07:28:16;;;;;;;20.05;4.25;;;;;;;-143.29;100.00;62188.47;5052907;28;20360;-90
2023/10/13 07:30:49;;;;;;;16.98;3.47;;;;;;;-143.29;100.00;62188.47;5055352;28;20086;-90
2023/10/13 07:33:19;;;;;;;17.80;3.33;;;;;;;-143.29;100.00;62188.47;5072770;28;20477;-91
2023/10/13 07:35:51;;;;;;;15.45;3.90;;;;;;;-143.29;100.00;62188.47;5072663;28;20509;-91
2023/10/13 07:38:16;;;;;;;;;;;;;;;-143.29;100.00;62188.47;5074645;28;20025;-93
2023/10/13 07:40:50;;;;;;;14.98;3.95;;;;;;;-143.29;100.00;62188.47;5055540;28;20353;-92
2023/10/13 07:43:21;;;;;;;22.27;3.83;;;;;;;-143.29;100.00;62188.47;5052474;28;20028;-92
2023/10/13 07:45:50;;;;;;;15.73;4.00;;;;;;;-143.29;100.00;62188.47;5072589;28;20028;-91
2023/10/13 07:48:20;;;;;;;10.68;3.08;;;;;;;-143.29;100.00;62188.47;5054424;28;20106;-91
2023/10/13 07:50:46;;;;;;;16.20;3.80;;;;;;;-143.29;100.00;62188.47;5024196;28;20025;-92
2023/10/13 07:53:23;;;;;;;15.98;4.30;;;;;;;-143.29;100.00;62188.47;5038517;28;20028;-92
2023/10/13 07:55:56;;;;;;;18.70;3.65;;;;;;;-143.29;100.00;62188.47;5031934;28;20025;-90
2023/10/13 07:58:25;;;;;;;21.73;4.00;;;;;;;-143.29;100.00;62188.47;5030924;28;20033;-90
2023/10/13 08:01:06;;;;;;;25.38;4.07;;;;;;;-143.29;100.00;62188.47;5051810;28;20538;-91
2023/10/13 08:03:45;;;;;;;14.30;3.55;;;;;;;-143.29;100.00;62188.47;5046785;28;20060;-91
2023/10/13 08:08:38;;;;;;;20.63;2.70;;;;;;;-143.29;100.00;62188.47;5048176;28;20048;-90
2023/10/13 08:11:25;;;;;;;15.20;4.18;;;;;;;-143.29;100.00;62188.47;5040003;28;20072;-91
2023/10/13 08:13:54;;;;;;;22.10;3.83;;;;;;;-143.29;100.00;62188.47;5046306;28;20471;-90
2023/10/13 08:16:21;;;;;;;21.67;4.22;;;;;;;-143.29;100.00;62188.47;5030661;28;20391;-91
2023/10/13 08:18:52;;;;;;;19.73;3.58;;;;;;;-143.29;100.00;62188.47;5038368;28;20028;-92
2023/10/13 08:21:24;;;;;;;;;;;;;;;-143.29;100.00;62188.47;5042598;28;20025;-90
2023/10/13 08:26:56;;;;;;;15.95;3.03;;;;;;;-143.29;100.00;62188.47;5040158;28;20138;-91
2023/10/13 08:34:38;;;;;;;15.82;3.22;;;;;;;-143.29;100.00;62188.47;5049575;28;19913;-89
2023/10/13 08:40:43;;;;;;;20.98;3.50;;;;;;;-143.29;100.00;62188.47;5049872;28;20025;-89
2023/10/13 08:45:52;;;;;;;14.05;3.35;;;;;;;-143.29;100.00;62188.47;5051927;28;20048;-89
2023/10/13 08:48:07;;;;;;;22.83;4.05;;;;;;;-143.29;100.00;62188.47;5051518;28;20474;-90
2023/10/13 09:01:34;;;;;;;21.27;3.17;;;;;;;-143.29;100.00;62188.47;5050139;28;20106;-90
2023/10/13 09:04:22;;;;;;;20.02;3.15;;;;;;;-143.29;100.00;62188.47;5050075;28;20395;-90
2023/10/13 09:12:18;;;;;;;23.80;2.95;;;;;;;-143.29;100.00;62188.47;5055757;28;20033;-90
2023/10/13 09:14:57;;;;;;;18.55;3.80;;;;;;;-143.29;100.00;62188.47;5055673;28;20382;-91
2023/10/13 09:20:32;;;;;;;13.20;2.72;;;;;;;-143.29;100.00;62188.47;5055450;28;20037;-90
2023/10/13 09:25:35;;;;;;;;;;;;;;;-143.29;100.00;62188.47;5055901;28;20029;-89
2023/10/13 09:28:15;;;;;;;18.40;3.10;;;;;;;-143.29;100.00;62188.47;5055578;28;19996;-90
2023/10/13 09:30:53;;;;;;;20.70;3.28;;;;;;;-143.29;100.00;62188.47;5037399;28;20104;-89
2023/10/13 09:33:32;;;;;;;16.10;3.97;;;;;;;-143.29;100.00;62188.47;5055218;28;20029;-90
2023/10/13 09:36:04;;;;;;;18.88;3.40;;;;;;;-143.29;100.00;62188.47;5055194;28;20129;-90
2023/10/13 09:38:32;;;;;;;15.15;3.47;;;;;;;-143.29;100.00;62188.47;5055190;28;20021;-90
2023/10/13 09:41:01;;;;;;;10.63;3.00;;;;;;;-143.29;100.00;62188.47;5055460;28;20155;-90
2023/10/13 09:43:28;;;;;;;12.43;3.08;;;;;;;-143.29;100.00;62188.47;5054786;28;20036;-90
2023/10/13 09:46:06;;;;;;;17.73;3.13;;;;;;;-143.29;100.00;62188.47;5054895;28;20032;-90
2023/10/13 09:48:35;;;;;;;14.00;2.97;;;;;;;-143.29;100.00;62188.47;5054721;28;20021;-90
2023/10/13 09:51:04;;;;;;;12.75;2.83;;;;;;;-143.29;100.00;62188.47;5054858;28;20523;-90
2023/10/13 09:53:31;;;;;;;14.55;3.22;;;;;;;-143.29;100.00;62188.47;5036698;28;20040;-90
2023/10/13 09:56:11;;;;;;;9.23;2.33;;;;;;;-143.29;100.00;62188.47;5036952;28;20021;-90
2023/10/13 09:58:47;;;;;;;19.08;3.28;;;;;;;-143.29;100.00;62188.47;5070176;28;20380;-89
2023/10/13 10:01:20;;;;;;;23.98;3.15;;;;;;;-143.29;100.00;62188.47;5054780;28;20025;-90
2023/10/13 10:06:38;;;;;;;20.45;5.15;;;;;;;-143.29;100.00;62188.47;5054654;28;20035;-90
2023/10/13 10:09:15;;;;;;;13.80;3.95;;;;;;;-143.29;100.00;62188.47;5054651;28;20051;-89
2023/10/13 10:12:05;;;;;;;16.90;3.13;;;;;;;-143.29;100.00;62188.47;5054496;28;20032;-89
2023/10/13 10:14:45;;;;;;;20.65;3.50;;;;;;;-143.29;100.00;62188.47;5054411;28;20100;-89
2023/10/13 10:17:11;;;;;;;14.00;2.78;;;;;;;-143.29;100.00;62188.47;5053107;28;20025;-90
2023/10/13 10:19:56;;;;;;;19.88;2.67;;;;;;;-143.29;100.00;62188.47;5054223;28;20044;-90
2023/10/13 10:22:44;;;;;;;14.68;2.55;;;;;;;-143.29;100.00;62188.47;5053985;28;20040;-89
2023/10/13 10:25:25;;;;;;;15.52;3.45;;;;;;;-143.29;100.00;62188.47;5054558;28;20025;-89
2023/10/13 10:28:00;;;;;;;15.25;2.53;;;;;;;-143.29;100.00;62188.47;5054366;28;20487;-89
2023/10/13 10:30:29;;;;;;;17.38;2.95;;;;;;;-143.29;100.00;62188.47;5036297;28;20443;-90
2023/10/13 10:33:01;;;;;;;14.55;2.83;;;;;;;-143.29;100.00;62188.47;5053919;28;20025;-89
2023/10/13 10:35:32;;;;;;;17.13;3.03;;;;;;;-143.29;100.00;62188.47;5054283;28;20092;-89
2023/10/13 10:38:11;;;;;;;10.85;2.75;;;;;;;-143.29;100.00;62188.47;5054065;28;20029;-89
2023/10/13 10:40:57;;;;;;;11.93;2.40;;;;;;;-143.29;100.00;62188.47;5053885;28;20025;-89
2023/10/13 10:43:45;;;;;;;15.57;2.75;;;;;;;-143.29;100.00;62188.47;5025157;28;20047;-89
2023/10/13 10:46:18;;;;;;;14.18;1.95;;;;;;;-143.29;100.00;62188.47;5053888;28;20540;-89
2023/10/13 10:48:43;;;;;;;11.65;2.75;;;;;;;-143.29;100.00;62188.47;5054223;28;20029;-89
2023/10/13 10:53:44;;;;;;;16.83;3.28;;;;;;;-143.29;100.00;62188.47;5053584;28;20033;-89
2023/10/13 10:56:22;;;;;;;11.82;2.88;;;;;;;-143.29;100.00;62188.47;5053772;28;20188;-89
2023/10/13 10:58:56;;;;;;;17.17;2.88;;;;;;;-143.29;100.00;62188.47;5053674;28;20108;-89
2023/10/13 11:01:22;;;;;;;16.00;2.58;;;;;;;-143.29;100.00;62188.47;5053556;28;20087;-88
2023/10/13 11:03:59;;;;;;;11.82;2.50;;;;;;;-143.29;100.00;62188.47;5053470;28;20082;-89
2023/10/13 11:06:27;;;;;;;14.18;2.45;;;;;;;-143.29;100.00;62188.47;5053436;28;20029;-89
2023/10/13 11:09:03;;;;;;;15.18;2.60;;;;;;;-143.29;100.00;62188.47;5053602;28;20560;-88
2023/10/13 11:11:35;;;;;;;15.55;2.50;;;;;;;-143.29;100.00;62188.47;5035567;28;20120;-89
2023/10/13 11:14:13;;;;;;;7.32;1.77;;;;;;;-143.29;100.00;62188.47;5053434;28;20029;-89
2023/10/13 11:16:50;;;;;;;10.05;2.03;;;;;;;-143.29;100.00;62188.47;5053258;28;20657;-88
2023/10/13 11:19:16;;;;;;;10.93;2.85;;;;;;;-143.29;100.00;62188.47;5053294;28;20032;-89
2023/10/13 11:21:42;;;;;;;13.00;1.92;;;;;;;-143.29;100.00;62188.47;5053188;28;20040;-89
2023/10/13 11:24:11;;;;;;;8.93;1.70;;;;;;;-143.29;100.00;62188.47;5035367;28;20025;-89
2023/10/13 11:26:49;;;;;;;10.45;1.42;;;;;;;-143.29;100.00;62188.47;5052738;28;20048;-89
2023/10/13 11:29:19;;;;;;;9.18;1.60;;;;;;;-143.29;100.00;62188.47;5053041;28;20025;-88
2023/10/13 11:31:58;;;;;;;12.10;2.80;;;;;;;-143.29;100.00;62188.47;5052848;28;20028;-89
2023/10/13 11:34:25;;;;;;;10.15;1.67;;;;;;;-143.29;100.00;62188.47;5052838;28;20464;-89
2023/10/13 11:36:50;;;;;;;5.55;1.30;;;;;;;-143.29;100.00;62188.47;5053056;28;20104;-88
2023/10/13 11:39:42;;;;;;;10.57;1.38;;;;;;;-143.29;100.00;62188.47;5052905;28;20506;-89
2023/10/13 11:42:10;;;;;;;14.48;1.70;;;;;;;-143.29;100.00;62188.47;5052018;28;20029;-89
2023/10/13 11:44:43;;;;;;;6.15;1.58;;;;;;;-143.29;100.00;62188.47;5052569;28;20441;-89
2023/10/13 11:47:32;;;;;;;10.15;2.40;;;;;;;-143.29;100.00;62188.47;5052827;28;20025;-89
2023/10/13 11:49:57;;;;;;;12.88;2.30;;;;;;;-143.29;100.00;62188.47;5052535;28;20541;-89
2023/10/13 11:52:26;;;;;;;9.00;1.33;;;;;;;-143.29;100.00;62188.47;5052455;28;20025;-88
2023/10/13 11:54:51;;;;;;;8.02;1.98;;;;;;;-143.29;100.00;62188.47;5052596;28;20408;-89
2023/10/13 11:57:19;;;;;;;12.25;2.40;;;;;;;-143.29;100.00;62188.47;5034896;28;20025;-89
2023/10/13 11:59:52;;;;;;;10.95;1.75;;;;;;;-143.29;100.00;62188.47;5052462;28;20032;-89
2023/10/13 12:04:54;;;;;;;15.57;3.28;;;;;;;-143.29;100.00;62188.47;5052246;28;20044;-89
2023/10/13 12:07:21;;;;;;;5.93;1.05;;;;;;;-143.29;100.00;62188.47;5052417;28;20509;-89
2023/10/13 12:12:19;;;;;;;6.38;1.75;;;;;;;-143.29;100.00;62188.47;5052362;28;20025;-88
2023/10/13 12:14:57;;;;;;;6.13;1.50;;;;;;;-143.29;100.00;62188.47;5052751;28;20112;-88
2023/10/13 12:17:25;;;;;;;7.70;1.52;;;;;;;-143.29;100.00;62188.47;5052061;28;20025;-88
2023/10/13 12:19:54;;;;;;;3.55;0.60;;;;;;;-143.29;100.00;62188.47;5052193;28;20056;-90
2023/10/13 12:22:35;;;;;;;3.15;0.57;;;;;;;-143.29;100.00;62188.47;5067499;28;20032;-89
2023/10/13 12:25:05;;;;;;;2.87;0.50;;;;;;;-143.29;100.00;62188.47;5052113;28;20082;-89
2023/10/13 12:27:45;;;;;;;3.28;0.95;;;;;;;-143.29;100.00;62188.47;5067279;28;20270;-89
2023/10/13 12:30:13;;;;;;;3.45;0.47;;;;;;;-143.29;100.00;62188.47;5051952;28;20029;-88
2023/10/13 12:32:44;;;;;;;5.97;1.02;;;;;;;-143.29;100.00;62188.47;5034280;28;20104;-89
2023/10/13 12:37:49;;;;;;;3.42;0.65;;;;;;;-143.29;100.00;62188.47;5051942;28;20025;-88
2023/10/13 12:54:04;;;;;;;3.47;0.65;;;;;;;-143.29;100.00;62188.47;5051654;28;20029;-89
2023/10/13 12:56:30;;;;;;;10.50;0.90;;;;;;;-143.29;100.00;62188.47;5051627;28;20365;-89
2023/10/13 12:58:55;;;;;;;3.63;0.68;;;;;;;-143.29;100.00;62188.47;5051534;28;20087;-89
2023/10/13 13:01:22;;;;;;;3.47;0.65;;;;;;;-143.29;100.00;62188.47;5051604;28;20471;-89
2023/10/13 13:03:49;;;;;;;2.05;0.28;;;;;;;-143.29;100.00;62188.47;5051500;28;20086;-88
2023/10/13 13:06:24;;;;;;;2.75;0.40;;;;;;;-143.29;100.00;62188.47;5051629;28;20360;-89
2023/10/13 13:08:51;;;;;;;4.68;0.50;;;;;;;-143.29;100.00;62188.47;5051870;28;20032;-88
2023/10/13 13:11:16;;;;;;;1.98;0.55;;;;;;;-143.29;100.00;62188.47;5051411;28;20549;-89
2023/10/13 13:13:42;;;;;;;3.17;0.40;;;;;;;-143.29;100.00;62188.47;5051400;28;20032;-89
2023/10/13 13:16:07;;;;;;;3.38;0.80;;;;;;;-143.29;100.00;62188.47;5051685;28;20475;-89
2023/10/13 13:18:34;;;;;;;5.85;1.73;;;;;;;-143.29;100.00;62188.47;5051329;28;20490;-88
2023/10/13 13:21:00;;;;;;;4.40;0.55;;;;;;;-143.29;100.00;62188.47;5051555;28;20155;-89
2023/10/13 13:23:25;;;;;;;4.35;0.60;;;;;;;-143.29;100.00;62188.47;5051429;28;20033;-89
2023/10/13 13:25:52;;;;;;;6.00;0.90;;;;;;;-143.29;100.00;62188.47;5051295;28;20025;-89
2023/10/13 13:28:17;;;;;;;2.70;0.60;;;;;;;-143.29;100.00;62188.47;5051391;28;20483;-88
2023/10/13 13:30:43;;;;;;;3.08;0.38;;;;;;;-143.29;100.00;62188.47;5051275;28;20021;-89
2023/10/13 13:33:12;;;;;;;2.83;0.50;;;;;;;-143.29;100.00;62188.47;5051085;28;20021;-88
2023/10/13 13:35:42;;;;;;;11.57;0.65;;;;;;;-143.29;100.00;62188.47;5051310;28;20475;-89
2023/10/13 13:38:16;;;;;;;1.80;0.68;;;;;;;-143.29;100.00;62188.47;5051271;28;20025;-89
2023/10/13 13:40:44;;;;;;;2.20;0.60;;;;;;;-143.29;100.00;62188.47;5051121;28;20032;-89
2023/10/13 13:43:18;;;;;;;5.57;1.60;;;;;;;-143.29;100.00;62188.47;5051068;28;20453;-89
2023/10/13 13:45:45;;;;;;;1.52;0.30;;;;;;;-143.29;100.00;62188.47;5051119;28;20422;-89
2023/10/13 13:48:15;;;;;;;2.15;0.45;;;;;;;-143.29;100.00;62188.47;5051179;28;20108;-89
2023/10/13 13:50:41;;;;;;;5.65;0.50;;;;;;;-143.29;100.00;62188.47;5052342;28;20040;-89
2023/10/13 13:53:09;;;;;;;2.17;0.50;;;;;;;-143.29;100.00;62188.47;5036887;28;20041;-89
2023/10/13 13:55:37;;;;;;;2.22;0.35;;;;;;;-143.29;100.00;62188.47;5036927;28;20104;-89
2023/10/13 13:58:07;;;;;;;1.67;0.30;;;;;;;-143.29;100.00;62188.47;5054751;28;20120;-88
2023/10/13 14:00:42;;;;;;;3.53;0.43;;;;;;;-143.29;100.00;62188.47;5054782;28;20071;-88
2023/10/13 14:03:12;;;;;;;1.52;0.25;;;;;;;-143.29;100.00;62188.47;5054459;28;20035;-88
2023/10/13 14:05:44;;;;;;;2.10;0.40;;;;;;;-143.29;100.00;62188.47;5054528;28;20032;-89
2023/10/13 14:08:14;;;;;;;1.38;0.40;;;;;;;-143.29;100.00;62188.47;5070060;28;20029;-89
2023/10/13 14:13:47;;;;;;;0.90;0.25;;;;;;;-143.29;100.00;62188.47;5054424;28;20040;-89
2023/10/13 14:16:16;;;;;;;1.10;0.30;;;;;;;-143.29;100.00;62188.47;5054047;28;20490;-89
2023/10/13 14:18:42;;;;;;;2.95;0.20;;;;;;;-143.29;100.00;62188.47;5054848;28;20045;-89
2023/10/13 14:21:07;;;;;;;1.52;0.40;;;;;;;-143.29;100.00;62188.47;5054305;28;20025;-89
2023/10/13 14:23:34;;;;;;;2.38;0.30;;;;;;;-143.29;100.00;62188.47;5054218;28;20116;-89